Time;durP1;ratioP1;P1;durP2;ratioP2;P2;SDS_P1;SDS_P2;PMS_P1;PMS_P2;Temp;Humidity;BMP_temperature;BMP_pressure;BME280_temperature;BME280_humidity;BME280_pressure;Samples;Min_cycle;Max_cycle;Signal;HPM_P1;HPM_P2
2022/02/16 00:01:29;;;;;;;0.30;0.30;;;;;;;;;;5021744;28;20037;-83
2022/02/16 00:03:55;;;;;;;0.30;0.30;;;;;;;;;;5021893;28;20027;-83
2022/02/16 00:06:21;;;;;;;0.20;0.20;;;;;;;;;;5021916;28;20230;-81
2022/02/16 00:08:47;;;;;;;0.20;0.20;;;;;;;;;;5022031;28;20029;-81
2022/02/16 00:11:13;;;;;;;0.30;0.30;;;;;;;;;;5022283;28;20041;-82
2022/02/16 00:13:39;;;;;;;0.20;0.20;;;;;;;;;;5024789;28;20749;-82
2022/02/16 00:16:08;;;;;;;0.20;0.20;;;;;;;;;;5026102;28;20033;-82
2022/02/16 00:18:38;;;;;;;0.20;0.20;;;;;;;;;;5021911;28;20440;-82
2022/02/16 00:21:07;;;;;;;0.22;0.22;;;;;;;;;;5025490;28;26010;-82
2022/02/16 00:23:33;;;;;;;0.20;0.20;;;;;;;;;;5026502;28;20528;-81
2022/02/16 00:26:02;;;;;;;0.20;0.20;;;;;;;;;;5025685;28;20571;-81
2022/02/16 00:28:28;;;;;;;0.20;0.20;;;;;;;;;;5025595;28;20117;-81
2022/02/16 00:30:54;;;;;;;0.30;0.30;;;;;;;;;;5025721;28;20040;-81
2022/02/16 00:33:20;;;;;;;0.30;0.30;;;;;;;;;;5025897;28;20083;-81
2022/02/16 00:35:46;;;;;;;0.30;0.30;;;;;;;;;;5025993;28;20029;-81
2022/02/16 00:38:12;;;;;;;0.20;0.20;;;;;;;;;;5024960;28;20061;-81
2022/02/16 00:40:38;;;;;;;0.22;0.22;;;;;;;;;;5025238;28;20033;-82
2022/02/16 00:43:04;;;;;;;0.20;0.20;;;;;;;;;;5027451;28;20036;-80
2022/02/16 00:45:32;;;;;;;0.30;0.30;;;;;;;;;;5022771;28;20029;-81
2022/02/16 00:47:59;;;;;;;0.20;0.20;;;;;;;;;;5025660;28;20351;-81
2022/02/16 00:50:25;;;;;;;0.20;0.20;;;;;;;;;;5022413;28;20140;-87
2022/02/16 00:52:51;;;;;;;0.20;0.20;;;;;;;;;;5025702;28;20029;-88
2022/02/16 00:55:17;;;;;;;0.20;0.20;;;;;;;;;;5025944;28;20511;-86
2022/02/16 00:57:43;;;;;;;0.20;0.20;;;;;;;;;;5025311;28;20574;-86
2022/02/16 01:00:09;;;;;;;0.27;0.27;;;;;;;;;;5026093;28;20037;-88
2022/02/16 01:02:35;;;;;;;0.20;0.20;;;;;;;;;;5025537;28;20033;-86
2022/02/16 01:05:01;;;;;;;0.20;0.20;;;;;;;;;;5025099;28;20039;-84
2022/02/16 01:07:27;;;;;;;0.20;0.20;;;;;;;;;;5020506;28;20039;-84
2022/02/16 01:09:54;;;;;;;0.20;0.20;;;;;;;;;;5024454;28;20291;-84
2022/02/16 01:12:20;;;;;;;0.20;0.20;;;;;;;;;;5025678;28;20041;-87
2022/02/16 01:14:46;;;;;;;0.20;0.20;;;;;;;;;;5026124;28;20598;-87
2022/02/16 01:17:12;;;;;;;0.30;0.30;;;;;;;;;;5023768;28;20268;-87
2022/02/16 01:19:38;;;;;;;0.30;0.30;;;;;;;;;;5025260;28;20043;-89
2022/02/16 01:22:04;;;;;;;0.50;0.50;;;;;;;;;;5023001;28;20284;-85
2022/02/16 01:24:30;;;;;;;0.47;0.47;;;;;;;;;;5024512;28;20495;-85
2022/02/16 01:26:56;;;;;;;0.20;0.20;;;;;;;;;;5024791;28;20040;-85
2022/02/16 01:29:23;;;;;;;0.30;0.30;;;;;;;;;;5024988;28;20290;-84
2022/02/16 01:31:49;;;;;;;;;;;;;;;;;;5024654;28;20033;-84
2022/02/16 01:34:15;;;;;;;0.20;0.20;;;;;;;;;;5024497;28;19958;-83
2022/02/16 01:36:41;;;;;;;0.30;0.30;;;;;;;;;;5025563;28;20641;-88
2022/02/16 01:39:07;;;;;;;0.20;0.20;;;;;;;;;;5027074;28;20033;-92
2022/02/16 01:41:34;;;;;;;0.20;0.20;;;;;;;;;;5029919;28;20032;-91
2022/02/16 01:44:00;;;;;;;0.20;0.20;;;;;;;;;;5027680;28;20033;-91
2022/02/16 01:46:27;;;;;;;0.20;0.20;;;;;;;;;;5027081;28;20029;-90
2022/02/16 01:48:53;;;;;;;0.20;0.20;;;;;;;;;;5027168;28;20026;-87
2022/02/16 01:51:19;;;;;;;0.20;0.20;;;;;;;;;;5025347;28;20115;-88
2022/02/16 01:53:46;;;;;;;0.20;0.20;;;;;;;;;;5025746;28;20113;-84
2022/02/16 01:56:12;;;;;;;0.20;0.20;;;;;;;;;;5021646;28;20041;-85
2022/02/16 01:58:39;;;;;;;0.20;0.20;;;;;;;;;;5023755;28;20045;-84
2022/02/16 02:01:05;;;;;;;0.20;0.20;;;;;;;;;;5024293;28;20501;-84
2022/02/16 02:03:32;;;;;;;0.20;0.20;;;;;;;;;;5024039;28;20037;-84
2022/02/16 02:05:58;;;;;;;0.20;0.20;;;;;;;;;;5024461;28;20099;-86
2022/02/16 02:08:24;;;;;;;0.30;0.30;;;;;;;;;;5024923;28;20108;-85
2022/02/16 02:10:56;;;;;;;0.20;0.20;;;;;;;;;;5023922;28;20068;-84
2022/02/16 02:13:22;;;;;;;0.20;0.20;;;;;;;;;;5023617;28;20025;-84
2022/02/16 02:15:48;;;;;;;0.20;0.20;;;;;;;;;;5023468;28;20037;-83
2022/02/16 02:18:18;;;;;;;0.20;0.20;;;;;;;;;;5023762;28;20082;-82
2022/02/16 02:20:44;;;;;;;0.20;0.20;;;;;;;;;;5021067;28;20041;-83
2022/02/16 02:23:11;;;;;;;0.30;0.30;;;;;;;;;;5024031;28;20109;-85
2022/02/16 02:25:37;;;;;;;;;;;;;;;;;;5017565;28;20030;-85
2022/02/16 02:28:03;;;;;;;0.20;0.20;;;;;;;;;;5013966;28;19913;-84
2022/02/16 02:30:29;;;;;;;0.20;0.20;;;;;;;;;;5022978;28;20037;-84
2022/02/16 02:32:55;;;;;;;0.20;0.20;;;;;;;;;;5023566;28;20086;-85
2022/02/16 02:35:21;;;;;;;0.20;0.20;;;;;;;;;;5023216;28;20029;-84
2022/02/16 02:37:47;;;;;;;0.20;0.20;;;;;;;;;;5023196;28;20029;-84
2022/02/16 02:40:13;;;;;;;0.20;0.20;;;;;;;;;;5018725;28;20457;-85
2022/02/16 02:42:40;;;;;;;0.20;0.20;;;;;;;;;;5023958;28;20036;-84
2022/02/16 02:45:07;;;;;;;0.30;0.30;;;;;;;;;;5024265;28;20029;-84
2022/02/16 02:47:33;;;;;;;0.30;0.30;;;;;;;;;;5023495;28;20087;-84
2022/02/16 02:49:59;;;;;;;0.27;0.27;;;;;;;;;;5022793;28;20043;-84
2022/02/16 02:52:25;;;;;;;0.40;0.40;;;;;;;;;;5022707;28;20043;-84
2022/02/16 02:54:51;;;;;;;0.30;0.30;;;;;;;;;;5022853;28;20060;-84
2022/02/16 02:57:17;;;;;;;0.30;0.30;;;;;;;;;;5022217;28;20056;-84
2022/02/16 02:59:44;;;;;;;0.20;0.20;;;;;;;;;;5023286;28;20268;-83
2022/02/16 03:02:10;;;;;;;0.30;0.30;;;;;;;;;;5022366;28;20033;-83
2022/02/16 03:04:36;;;;;;;0.20;0.20;;;;;;;;;;5022698;28;20112;-84
2022/02/16 03:07:02;;;;;;;0.20;0.20;;;;;;;;;;5018256;28;20025;-83
2022/02/16 03:09:28;;;;;;;0.20;0.20;;;;;;;;;;5022739;28;20130;-83
2022/02/16 03:11:54;;;;;;;0.20;0.20;;;;;;;;;;5021365;28;20036;-84
2022/02/16 03:14:20;;;;;;;0.30;0.30;;;;;;;;;;5021826;28;20033;-85
2022/02/16 03:16:46;;;;;;;0.20;0.20;;;;;;;;;;5022522;28;20037;-83
2022/02/16 03:19:12;;;;;;;0.20;0.20;;;;;;;;;;5022540;28;20033;-81
2022/02/16 03:21:38;;;;;;;0.23;0.23;;;;;;;;;;5023032;28;20041;-81
2022/02/16 03:24:07;;;;;;;0.20;0.20;;;;;;;;;;5023088;28;20511;-81
2022/02/16 03:26:33;;;;;;;0.20;0.20;;;;;;;;;;5023331;28;20033;-81
2022/02/16 03:28:59;;;;;;;0.30;0.30;;;;;;;;;;5022495;28;20037;-81
2022/02/16 03:31:25;;;;;;;0.30;0.30;;;;;;;;;;5022784;28;20046;-82
2022/02/16 03:33:51;;;;;;;0.30;0.30;;;;;;;;;;5022517;28;20029;-82
2022/02/16 03:36:17;;;;;;;0.20;0.20;;;;;;;;;;5022531;28;20106;-82
2022/02/16 03:38:43;;;;;;;0.30;0.30;;;;;;;;;;5023272;28;20029;-82
2022/02/16 03:41:09;;;;;;;0.20;0.20;;;;;;;;;;5022272;28;20573;-83
2022/02/16 03:43:36;;;;;;;0.30;0.30;;;;;;;;;;5024675;28;20123;-84
2022/02/16 03:46:02;;;;;;;0.20;0.20;;;;;;;;;;5022895;28;20143;-84
2022/02/16 03:48:28;;;;;;;0.30;0.30;;;;;;;;;;5026909;28;20105;-84
2022/02/16 03:50:54;;;;;;;0.20;0.20;;;;;;;;;;5026302;28;20518;-85
2022/02/16 03:53:20;;;;;;;0.30;0.30;;;;;;;;;;5026897;28;20033;-84
2022/02/16 03:55:46;;;;;;;0.20;0.20;;;;;;;;;;5026547;28;20040;-84
2022/02/16 03:58:13;;;;;;;0.20;0.20;;;;;;;;;;5026084;28;20929;-85
2022/02/16 04:00:39;;;;;;;0.20;0.20;;;;;;;;;;5027477;28;20403;-87
2022/02/16 04:03:09;;;;;;;0.20;0.20;;;;;;;;;;5020479;28;20520;-89
2022/02/16 04:05:36;;;;;;;0.20;0.20;;;;;;;;;;5036298;28;20036;-86
2022/02/16 04:08:02;;;;;;;0.20;0.20;;;;;;;;;;5025597;28;20040;-87
2022/02/16 04:10:28;;;;;;;0.38;0.38;;;;;;;;;;5025981;28;20090;-86
2022/02/16 04:12:54;;;;;;;0.30;0.30;;;;;;;;;;5025864;28;20683;-87
2022/02/16 04:15:21;;;;;;;0.22;0.22;;;;;;;;;;5025717;28;20036;-86
2022/02/16 04:17:47;;;;;;;0.40;0.40;;;;;;;;;;5030745;28;20024;-85
2022/02/16 04:20:13;;;;;;;0.40;0.40;;;;;;;;;;5026399;28;20091;-87
2022/02/16 04:22:43;;;;;;;0.20;0.20;;;;;;;;;;5026063;28;20397;-87
2022/02/16 04:25:09;;;;;;;0.20;0.20;;;;;;;;;;5025782;28;20781;-84
2022/02/16 04:27:36;;;;;;;0.30;0.30;;;;;;;;;;5021725;28;20394;-87
2022/02/16 04:30:02;;;;;;;0.28;0.28;;;;;;;;;;5026157;28;20048;-86
2022/02/16 04:32:28;;;;;;;0.30;0.30;;;;;;;;;;5025075;28;20132;-86
2022/02/16 04:34:54;;;;;;;0.80;0.80;;;;;;;;;;5030521;28;20489;-87
2022/02/16 04:37:20;;;;;;;0.52;0.52;;;;;;;;;;5032624;28;20041;-86
2022/02/16 04:39:46;;;;;;;0.40;0.40;;;;;;;;;;5021533;28;20033;-87
2022/02/16 04:42:12;;;;;;;0.40;0.40;;;;;;;;;;5025721;28;20087;-85
2022/02/16 04:44:38;;;;;;;0.40;0.40;;;;;;;;;;5026048;28;20025;-85
2022/02/16 04:47:04;;;;;;;0.30;0.30;;;;;;;;;;5025279;28;20034;-85
2022/02/16 04:49:30;;;;;;;0.30;0.30;;;;;;;;;;5025339;28;20120;-84
2022/02/16 04:51:56;;;;;;;0.30;0.30;;;;;;;;;;5025287;28;20087;-85
2022/02/16 04:54:22;;;;;;;0.30;0.30;;;;;;;;;;5025715;28;20100;-85
2022/02/16 04:56:48;;;;;;;0.30;0.30;;;;;;;;;;5023914;28;20319;-84
2022/02/16 04:59:15;;;;;;;0.30;0.30;;;;;;;;;;5022783;28;20057;-85
2022/02/16 05:01:42;;;;;;;0.20;0.20;;;;;;;;;;5024830;28;20055;-86
2022/02/16 05:04:08;;;;;;;0.30;0.30;;;;;;;;;;5024835;28;20029;-86
2022/02/16 05:06:37;;;;;;;0.30;0.30;;;;;;;;;;5025246;28;20106;-85
2022/02/16 05:09:04;;;;;;;0.30;0.30;;;;;;;;;;5024509;28;20541;-85
2022/02/16 05:11:30;;;;;;;;;;;;;;;;;;5025657;28;20056;-86
2022/02/16 05:13:56;;;;;;;0.20;0.20;;;;;;;;;;5024613;28;20435;-86
2022/02/16 05:16:22;;;;;;;0.33;0.33;;;;;;;;;;5024579;28;20037;-87
2022/02/16 05:18:49;;;;;;;0.30;0.30;;;;;;;;;;5024851;28;20029;-87
2022/02/16 05:21:15;;;;;;;0.40;0.40;;;;;;;;;;5007679;28;20075;-88
2022/02/16 05:23:41;;;;;;;0.30;0.30;;;;;;;;;;5023881;28;20037;-86
2022/02/16 05:26:08;;;;;;;0.40;0.40;;;;;;;;;;5024435;28;20036;-85
2022/02/16 05:28:34;;;;;;;0.27;0.27;;;;;;;;;;5020688;28;20038;-87
2022/02/16 05:31:00;;;;;;;0.30;0.30;;;;;;;;;;5024348;28;20299;-86
2022/02/16 05:33:28;;;;;;;0.30;0.30;;;;;;;;;;5024437;28;20029;-85
2022/02/16 05:35:54;;;;;;;0.28;0.28;;;;;;;;;;5024637;28;20519;-85
2022/02/16 05:38:21;;;;;;;0.30;0.30;;;;;;;;;;5025699;28;20021;-89
2022/02/16 05:40:47;;;;;;;0.30;0.30;;;;;;;;;;5024746;28;20488;-89
2022/02/16 05:43:14;;;;;;;0.30;0.30;;;;;;;;;;5025592;28;20068;-88
2022/02/16 05:45:43;;;;;;;0.20;0.20;;;;;;;;;;5025818;28;20124;-89
2022/02/16 05:48:09;;;;;;;0.22;0.22;;;;;;;;;;5025100;28;20083;-90
2022/02/16 05:50:35;;;;;;;0.20;0.20;;;;;;;;;;5025513;28;20037;-87
2022/02/16 05:53:01;;;;;;;0.30;0.30;;;;;;;;;;5023602;28;20041;-87
2022/02/16 05:55:27;;;;;;;0.20;0.20;;;;;;;;;;5026615;28;20073;-89
2022/02/16 05:57:54;;;;;;;0.30;0.30;;;;;;;;;;5024315;28;20082;-86
2022/02/16 06:00:20;;;;;;;0.35;0.35;;;;;;;;;;5023806;28;20041;-86
2022/02/16 06:02:46;;;;;;;0.20;0.20;;;;;;;;;;5024536;28;20029;-86
2022/02/16 06:05:12;;;;;;;0.30;0.30;;;;;;;;;;5024196;28;20642;-86
2022/02/16 06:07:38;;;;;;;0.30;0.30;;;;;;;;;;5022523;28;20034;-88
2022/02/16 06:10:04;;;;;;;0.20;0.20;;;;;;;;;;5023714;28;20033;-89
2022/02/16 06:12:30;;;;;;;0.20;0.20;;;;;;;;;;5023526;28;20037;-82
2022/02/16 06:14:56;;;;;;;0.20;0.20;;;;;;;;;;5021850;28;20044;-84
2022/02/16 06:17:22;;;;;;;0.20;0.20;;;;;;;;;;5024212;28;20037;-87
2022/02/16 06:19:49;;;;;;;0.30;0.30;;;;;;;;;;5019226;28;20049;-82
2022/02/16 06:22:15;;;;;;;0.30;0.30;;;;;;;;;;5021143;28;20315;-83
2022/02/16 06:24:41;;;;;;;0.30;0.30;;;;;;;;;;5023449;28;20084;-87
2022/02/16 06:27:07;;;;;;;0.20;0.20;;;;;;;;;;5008009;28;20025;-88
2022/02/16 06:29:33;;;;;;;0.30;0.30;;;;;;;;;;5024862;28;20033;-87
2022/02/16 06:31:59;;;;;;;0.20;0.20;;;;;;;;;;5020730;28;20044;-88
2022/02/16 06:34:25;;;;;;;0.30;0.30;;;;;;;;;;5019873;28;20037;-91
2022/02/16 06:36:51;;;;;;;0.20;0.20;;;;;;;;;;5027472;28;20501;-89
2022/02/16 06:39:17;;;;;;;0.30;0.30;;;;;;;;;;5027258;28;20087;-92
2022/02/16 06:41:43;;;;;;;0.20;0.20;;;;;;;;;;5022719;28;20059;-86
2022/02/16 06:44:09;;;;;;;0.30;0.30;;;;;;;;;;5023141;28;20489;-87
2022/02/16 06:46:35;;;;;;;0.20;0.20;;;;;;;;;;5025133;28;20052;-88
2022/02/16 06:49:01;;;;;;;0.28;0.28;;;;;;;;;;5021296;28;20425;-84
2022/02/16 06:51:27;;;;;;;0.20;0.20;;;;;;;;;;5023403;28;20125;-83
2022/02/16 06:53:56;;;;;;;0.33;0.33;;;;;;;;;;5022859;28;20029;-80
2022/02/16 06:56:23;;;;;;;0.30;0.30;;;;;;;;;;5022712;28;20976;-80
2022/02/16 06:58:49;;;;;;;0.52;0.52;;;;;;;;;;5022634;28;20037;-80
2022/02/16 07:01:15;;;;;;;0.60;0.60;;;;;;;;;;5022615;28;20432;-80
2022/02/16 07:03:41;;;;;;;0.60;0.60;;;;;;;;;;5022414;28;20022;-80
2022/02/16 07:06:07;;;;;;;0.50;0.50;;;;;;;;;;5024189;28;20030;-88
2022/02/16 07:08:34;;;;;;;0.40;0.40;;;;;;;;;;5023601;28;20397;-84
2022/02/16 07:11:02;;;;;;;0.35;0.35;;;;;;;;;;5024610;28;20568;-87
2022/02/16 07:13:28;;;;;;;0.30;0.30;;;;;;;;;;5021599;28;20413;-82
2022/02/16 07:15:54;;;;;;;0.40;0.40;;;;;;;;;;5022703;28;20029;-86
2022/02/16 07:18:20;;;;;;;0.30;0.30;;;;;;;;;;5022977;28;20033;-83
2022/02/16 07:20:46;;;;;;;0.30;0.30;;;;;;;;;;5019982;28;20030;-84
2022/02/16 07:23:12;;;;;;;0.30;0.30;;;;;;;;;;5021243;28;20033;-85
2022/02/16 07:25:38;;;;;;;0.30;0.30;;;;;;;;;;5017866;28;20083;-85
2022/02/16 07:28:06;;;;;;;0.40;0.40;;;;;;;;;;5017305;28;20033;-85
2022/02/16 07:30:32;;;;;;;0.30;0.30;;;;;;;;;;5017364;28;20371;-85
2022/02/16 07:32:58;;;;;;;0.30;0.30;;;;;;;;;;5018884;28;20029;-85
2022/02/16 07:35:24;;;;;;;0.30;0.30;;;;;;;;;;5021485;28;20283;-87
2022/02/16 07:37:51;;;;;;;0.30;0.30;;;;;;;;;;5018953;28;20037;-81
2022/02/16 07:40:17;;;;;;;0.22;0.22;;;;;;;;;;5019807;28;20029;-82
2022/02/16 07:42:43;;;;;;;0.30;0.30;;;;;;;;;;5019768;28;20037;-82
2022/02/16 07:45:10;;;;;;;0.20;0.20;;;;;;;;;;5021048;28;20040;-82
2022/02/16 07:47:36;;;;;;;;;;;;;;;;;;5021588;28;20038;-82
2022/02/16 07:50:03;;;;;;;0.30;0.30;;;;;;;;;;5021129;28;19921;-82
2022/02/16 07:52:31;;;;;;;0.30;0.30;;;;;;;;;;5021179;28;20048;-82
2022/02/16 07:54:59;;;;;;;0.22;0.22;;;;;;;;;;5022233;28;20112;-82
2022/02/16 07:57:25;;;;;;;0.30;0.30;;;;;;;;;;5022022;28;20068;-81
2022/02/16 07:59:51;;;;;;;0.30;0.30;;;;;;;;;;5022799;28;20056;-81
2022/02/16 08:02:17;;;;;;;0.30;0.30;;;;;;;;;;5022442;28;20041;-81
2022/02/16 08:04:43;;;;;;;0.38;0.38;;;;;;;;;;5021818;28;20805;-81
2022/02/16 08:07:09;;;;;;;0.40;0.40;;;;;;;;;;5021807;28;20540;-81
2022/02/16 08:09:35;;;;;;;393.83;370.67;;;;;;;;;;5024100;28;20069;-81
2022/02/16 08:12:01;;;;;;;7.23;6.93;;;;;;;;;;5022580;28;20098;-81
2022/02/16 08:14:33;;;;;;;0.30;0.30;;;;;;;;;;5020373;28;20065;-81
2022/02/16 08:16:59;;;;;;;0.20;0.20;;;;;;;;;;5021709;28;20163;-81
2022/02/16 08:19:25;;;;;;;0.20;0.20;;;;;;;;;;5022407;28;20116;-81
2022/02/16 08:21:55;;;;;;;0.20;0.20;;;;;;;;;;5021383;28;20564;-81
2022/02/16 08:24:21;;;;;;;0.20;0.20;;;;;;;;;;5019579;28;20030;-80
2022/02/16 08:26:47;;;;;;;0.20;0.20;;;;;;;;;;5022788;28;20698;-81
2022/02/16 08:29:15;;;;;;;0.32;0.32;;;;;;;;;;5022085;28;20033;-82
2022/02/16 08:31:41;;;;;;;0.20;0.20;;;;;;;;;;5021033;28;20029;-81
2022/02/16 08:34:07;;;;;;;;;;;;;;;;;;5023812;28;20033;-81
2022/02/16 08:36:33;;;;;;;0.10;0.10;;;;;;;;;;5025561;28;19913;-81
2022/02/16 08:38:59;;;;;;;0.10;0.10;;;;;;;;;;5023855;28;20033;-81
2022/02/16 08:41:26;;;;;;;0.20;0.20;;;;;;;;;;5025384;28;20029;-81
2022/02/16 08:43:53;;;;;;;0.22;0.22;;;;;;;;;;5024136;28;20523;-81
2022/02/16 08:46:19;;;;;;;0.30;0.30;;;;;;;;;;5023898;28;20524;-81
2022/02/16 08:48:45;;;;;;;0.30;0.30;;;;;;;;;;5023948;28;20497;-81
2022/02/16 08:51:11;;;;;;;0.20;0.20;;;;;;;;;;5024008;28;20039;-82
2022/02/16 08:53:37;;;;;;;0.20;0.20;;;;;;;;;;5024426;28;20129;-81
2022/02/16 08:56:04;;;;;;;0.25;0.25;;;;;;;;;;5024066;28;20037;-81
2022/02/16 08:58:30;;;;;;;0.20;0.20;;;;;;;;;;5021724;28;20140;-83
2022/02/16 09:00:56;;;;;;;0.20;0.20;;;;;;;;;;5023285;28;20489;-81
2022/02/16 09:03:22;;;;;;;0.20;0.20;;;;;;;;;;5019548;28;20038;-81
2022/02/16 09:05:49;;;;;;;0.30;0.30;;;;;;;;;;5022594;28;20021;-86
2022/02/16 09:08:15;;;;;;;0.20;0.20;;;;;;;;;;5021413;28;20856;-86
2022/02/16 09:10:41;;;;;;;0.28;0.28;;;;;;;;;;5024607;28;20298;-86
2022/02/16 09:13:07;;;;;;;0.40;0.40;;;;;;;;;;5023238;28;20026;-85
2022/02/16 09:15:33;;;;;;;0.40;0.40;;;;;;;;;;5022743;28;20028;-86
2022/02/16 09:17:59;;;;;;;0.30;0.30;;;;;;;;;;5023984;28;20033;-85
2022/02/16 09:20:26;;;;;;;0.47;0.47;;;;;;;;;;5024394;28;20325;-87
2022/02/16 09:22:52;;;;;;;0.20;0.20;;;;;;;;;;5024215;28;20036;-86
2022/02/16 09:25:19;;;;;;;0.20;0.20;;;;;;;;;;5023956;28;20034;-86
2022/02/16 09:27:45;;;;;;;0.20;0.20;;;;;;;;;;5021389;28;20206;-86
2022/02/16 09:30:11;;;;;;;0.20;0.20;;;;;;;;;;5023711;28;20124;-86
2022/02/16 09:32:38;;;;;;;0.30;0.30;;;;;;;;;;5024836;28;20021;-86
2022/02/16 09:35:04;;;;;;;0.20;0.20;;;;;;;;;;5023505;28;20075;-86
2022/02/16 09:37:31;;;;;;;0.20;0.20;;;;;;;;;;5023324;28;20057;-85
2022/02/16 09:39:57;;;;;;;;;;;;;;;;;;5023412;28;20136;-85
2022/02/16 09:42:23;;;;;;;0.20;0.20;;;;;;;;;;5020049;28;19913;-85
2022/02/16 09:44:49;;;;;;;0.20;0.20;;;;;;;;;;5015813;28;20084;-85
2022/02/16 09:47:15;;;;;;;0.20;0.20;;;;;;;;;;5020648;28;20063;-83
2022/02/16 09:49:42;;;;;;;0.60;0.60;;;;;;;;;;5021454;28;20033;-85
2022/02/16 09:52:09;;;;;;;0.40;0.40;;;;;;;;;;5024403;28;20064;-86
2022/02/16 09:54:35;;;;;;;0.40;0.40;;;;;;;;;;5023236;28;20040;-85
2022/02/16 09:57:01;;;;;;;0.50;0.50;;;;;;;;;;5023025;28;20033;-85
2022/02/16 09:59:27;;;;;;;0.50;0.50;;;;;;;;;;5022724;28;20464;-85
2022/02/16 10:01:53;;;;;;;0.40;0.40;;;;;;;;;;5020076;28;20135;-85
2022/02/16 10:04:20;;;;;;;0.40;0.40;;;;;;;;;;5022223;28;20826;-84
2022/02/16 10:06:48;;;;;;;0.40;0.40;;;;;;;;;;5022957;28;20395;-85
2022/02/16 10:09:26;;;;;;;0.30;0.30;;;;;;;;;;5020510;28;20104;-85
2022/02/16 10:11:54;;;;;;;0.20;0.20;;;;;;;;;;5018093;28;20040;-82
2022/02/16 10:14:23;;;;;;;0.28;0.28;;;;;;;;;;5022994;28;20103;-82
2022/02/16 10:16:50;;;;;;;0.40;0.40;;;;;;;;;;5022258;28;20033;-82
2022/02/16 10:19:17;;;;;;;0.40;0.40;;;;;;;;;;5021716;28;20033;-83
2022/02/16 10:22:07;;;;;;;0.50;0.50;;;;;;;;;;5021743;28;20049;-83
2022/02/16 10:24:34;;;;;;;0.30;0.30;;;;;;;;;;5019313;28;20072;-83
2022/02/16 10:27:00;;;;;;;0.40;0.40;;;;;;;;;;5022056;28;20026;-83
2022/02/16 10:29:27;;;;;;;0.40;0.40;;;;;;;;;;5022540;28;20090;-82
2022/02/16 10:31:54;;;;;;;0.30;0.30;;;;;;;;;;5021136;28;20061;-82
2022/02/16 10:34:20;;;;;;;0.40;0.40;;;;;;;;;;5020707;28;20037;-82
2022/02/16 10:36:46;;;;;;;0.30;0.30;;;;;;;;;;5022880;28;20104;-83
2022/02/16 10:39:18;;;;;;;0.30;0.30;;;;;;;;;;5022728;28;21828;-82
2022/02/16 10:41:44;;;;;;;0.20;0.20;;;;;;;;;;5018107;28;20798;-83
2022/02/16 10:44:17;;;;;;;0.20;0.20;;;;;;;;;;5022617;28;20596;-83
2022/02/16 10:46:43;;;;;;;0.20;0.20;;;;;;;;;;5022053;28;20034;-83
2022/02/16 10:49:09;;;;;;;0.20;0.20;;;;;;;;;;5022466;28;20045;-84
2022/02/16 10:51:35;;;;;;;0.93;0.40;;;;;;;;;;5018960;28;20072;-84
2022/02/16 10:54:12;;;;;;;0.20;0.20;;;;;;;;;;5021164;28;20322;-83
2022/02/16 10:56:39;;;;;;;0.20;0.20;;;;;;;;;;5021381;28;20038;-83
2022/02/16 10:59:05;;;;;;;0.20;0.20;;;;;;;;;;5019349;28;20056;-84
2022/02/16 11:01:32;;;;;;;0.20;0.20;;;;;;;;;;5020010;28;20105;-85
2022/02/16 11:03:59;;;;;;;0.20;0.20;;;;;;;;;;5020870;28;20119;-85
2022/02/16 11:06:47;;;;;;;0.20;0.20;;;;;;;;;;5020458;28;20489;-83
2022/02/16 11:09:18;;;;;;;0.20;0.20;;;;;;;;;;5020121;28;20052;-82
2022/02/16 11:11:45;;;;;;;0.20;0.20;;;;;;;;;;5017818;28;20045;-82
2022/02/16 11:14:11;;;;;;;;;;;;;;;;;;5020612;28;20026;-82
2022/02/16 11:16:38;;;;;;;0.30;0.30;;;;;;;;;;5016662;28;19917;-83
2022/02/16 11:19:23;;;;;;;0.20;0.20;;;;;;;;;;5016930;28;20037;-82
2022/02/16 11:21:58;;;;;;;0.20;0.20;;;;;;;;;;5017888;28;20095;-82
2022/02/16 11:24:33;;;;;;;0.20;0.20;;;;;;;;;;5018227;28;20025;-83
2022/02/16 11:27:00;;;;;;;0.20;0.20;;;;;;;;;;5018836;28;20041;-82
2022/02/16 11:29:26;;;;;;;0.20;0.20;;;;;;;;;;5017149;28;20417;-81
2022/02/16 11:31:53;;;;;;;0.20;0.20;;;;;;;;;;5018422;28;20548;-81
2022/02/16 11:34:19;;;;;;;;;;;;;;;;;;5016411;28;20487;-83
2022/02/16 11:36:46;;;;;;;0.30;0.30;;;;;;;;;;5013496;28;19970;-82
2022/02/16 11:39:32;;;;;;;0.50;0.50;;;;;;;;;;5021371;28;20871;-82
2022/02/16 11:41:59;;;;;;;0.20;0.20;;;;;;;;;;5021041;28;20025;-83
2022/02/16 11:44:45;;;;;;;0.20;0.20;;;;;;;;;;5021134;28;20516;-83
2022/02/16 11:47:11;;;;;;;0.20;0.20;;;;;;;;;;5020459;28;20140;-83
2022/02/16 11:49:37;;;;;;;0.20;0.20;;;;;;;;;;5020945;28;20025;-83
2022/02/16 11:52:23;;;;;;;0.20;0.20;;;;;;;;;;5014173;28;20088;-82
2022/02/16 11:54:55;;;;;;;0.20;0.20;;;;;;;;;;5017296;28;20136;-82
2022/02/16 11:57:31;;;;;;;0.20;0.20;;;;;;;;;;5019643;28;20041;-82
2022/02/16 12:00:11;;;;;;;0.20;0.20;;;;;;;;;;5018487;28;20061;-83
2022/02/16 12:02:55;;;;;;;0.30;0.30;;;;;;;;;;5018077;28;20040;-83
2022/02/16 12:08:47;;;;;;;0.20;0.20;;;;;;;;;;5021669;28;20270;-82
2022/02/16 12:11:17;;;;;;;0.30;0.30;;;;;;;;;;5020254;28;20056;-83
2022/02/16 12:13:44;;;;;;;0.25;0.25;;;;;;;;;;5020742;28;20121;-83
2022/02/16 12:16:12;;;;;;;0.30;0.30;;;;;;;;;;5020703;28;20029;-83
2022/02/16 12:18:39;;;;;;;0.22;0.22;;;;;;;;;;5022380;28;20387;-82
2022/02/16 12:21:05;;;;;;;;;;;;;;;;;;5024109;28;20033;-84
2022/02/16 12:23:39;;;;;;;0.20;0.20;;;;;;;;;;5023679;28;19917;-82
2022/02/16 12:26:16;;;;;;;0.20;0.20;;;;;;;;;;5019619;28;20041;-80
2022/02/16 12:29:01;;;;;;;0.20;0.20;;;;;;;;;;5020330;28;20183;-83
2022/02/16 12:31:29;;;;;;;0.20;0.20;;;;;;;;;;5021713;28;20041;-83
2022/02/16 12:33:57;;;;;;;0.20;0.20;;;;;;;;;;5021509;28;20391;-82
2022/02/16 12:36:24;;;;;;;0.20;0.20;;;;;;;;;;5013652;28;20579;-82
2022/02/16 12:38:50;;;;;;;0.25;0.25;;;;;;;;;;5024036;28;20559;-83
2022/02/16 12:41:19;;;;;;;0.20;0.20;;;;;;;;;;5021408;28;20084;-82
2022/02/16 12:43:54;;;;;;;0.20;0.20;;;;;;;;;;5021197;28;20519;-83
2022/02/16 12:46:21;;;;;;;0.20;0.20;;;;;;;;;;5023870;28;20552;-82
2022/02/16 12:48:47;;;;;;;;;;;;;;;;;;5022523;28;20084;-82
2022/02/16 12:51:20;;;;;;;0.20;0.20;;;;;;;;;;5016718;28;20020;-82
2022/02/16 12:53:46;;;;;;;0.20;0.20;;;;;;;;;;5023009;28;20044;-81
2022/02/16 12:56:12;;;;;;;0.40;0.40;;;;;;;;;;5023652;28;20033;-82
2022/02/16 12:58:40;;;;;;;0.30;0.30;;;;;;;;;;5022734;28;20045;-81
2022/02/16 13:01:07;;;;;;;0.20;0.20;;;;;;;;;;5013166;28;20060;-82
2022/02/16 13:03:33;;;;;;;0.20;0.20;;;;;;;;;;5023756;28;20025;-82
2022/02/16 13:06:00;;;;;;;0.20;0.20;;;;;;;;;;5024969;28;20454;-87
2022/02/16 13:08:27;;;;;;;0.28;0.28;;;;;;;;;;5023643;28;20048;-89
2022/02/16 13:10:56;;;;;;;0.20;0.20;;;;;;;;;;5021806;28;20038;-88
2022/02/16 13:13:30;;;;;;;0.30;0.30;;;;;;;;;;5021613;28;20563;-88
2022/02/16 13:15:56;;;;;;;0.20;0.20;;;;;;;;;;5024073;28;20030;-88
2022/02/16 13:18:22;;;;;;;;;;;;;;;;;;5024326;28;20026;-88
2022/02/16 13:20:49;;;;;;;0.20;0.20;;;;;;;;;;5024926;28;19913;-90
2022/02/16 13:23:15;;;;;;;0.20;0.20;;;;;;;;;;5023472;28;20045;-88
2022/02/16 13:25:45;;;;;;;0.20;0.20;;;;;;;;;;5024639;28;20142;-88
2022/02/16 13:28:11;;;;;;;0.20;0.20;;;;;;;;;;5021390;28;20036;-87
2022/02/16 13:30:38;;;;;;;0.20;0.20;;;;;;;;;;5024264;28;20045;-88
2022/02/16 13:33:20;;;;;;;0.25;0.25;;;;;;;;;;5024699;28;20039;-87
2022/02/16 13:35:57;;;;;;;0.20;0.20;;;;;;;;;;5023619;28;20040;-84
2022/02/16 13:38:30;;;;;;;0.20;0.20;;;;;;;;;;5023310;28;20053;-86
2022/02/16 13:41:04;;;;;;;0.20;0.20;;;;;;;;;;5023758;28;20095;-86
2022/02/16 13:43:46;;;;;;;0.20;0.20;;;;;;;;;;5023845;28;20524;-86
2022/02/16 13:46:12;;;;;;;0.20;0.20;;;;;;;;;;5023046;28;20069;-86
2022/02/16 13:48:38;;;;;;;0.20;0.20;;;;;;;;;;5024041;28;20104;-87
2022/02/16 13:51:12;;;;;;;0.23;0.23;;;;;;;;;;5023295;28;20493;-86
2022/02/16 13:53:38;;;;;;;0.20;0.20;;;;;;;;;;5021474;28;20723;-86
2022/02/16 13:56:04;;;;;;;0.27;0.27;;;;;;;;;;5020815;28;20457;-87
2022/02/16 13:58:34;;;;;;;0.20;0.20;;;;;;;;;;5021375;28;20445;-86
2022/02/16 14:01:03;;;;;;;0.28;0.28;;;;;;;;;;5020069;28;20025;-88
2022/02/16 14:03:29;;;;;;;0.20;0.20;;;;;;;;;;5020304;28;20082;-87
2022/02/16 14:05:55;;;;;;;0.20;0.20;;;;;;;;;;5021761;28;20096;-78
2022/02/16 14:08:21;;;;;;;0.20;0.20;;;;;;;;;;5018752;28;20042;-80
2022/02/16 14:10:47;;;;;;;0.20;0.20;;;;;;;;;;5019705;28;20296;-80
2022/02/16 14:13:13;;;;;;;0.20;0.20;;;;;;;;;;5020027;28;20040;-81
2022/02/16 14:15:40;;;;;;;0.20;0.20;;;;;;;;;;5020091;28;20086;-80
2022/02/16 14:18:06;;;;;;;0.20;0.20;;;;;;;;;;5020625;28;20036;-79
2022/02/16 14:20:35;;;;;;;0.50;0.50;;;;;;;;;;5022575;28;20037;-79
2022/02/16 14:23:01;;;;;;;0.40;0.40;;;;;;;;;;5021832;28;20040;-79
2022/02/16 14:25:28;;;;;;;0.30;0.30;;;;;;;;;;5022317;28;20032;-79
2022/02/16 14:27:54;;;;;;;0.30;0.30;;;;;;;;;;5022382;28;20029;-79
2022/02/16 14:30:20;;;;;;;0.20;0.20;;;;;;;;;;5022023;28;20049;-85
2022/02/16 14:32:47;;;;;;;0.20;0.20;;;;;;;;;;5022015;28;20029;-82
2022/02/16 14:35:13;;;;;;;;;;;;;;;;;;5023169;28;20037;-84
2022/02/16 14:37:40;;;;;;;0.20;0.20;;;;;;;;;;5023342;28;20411;-85
2022/02/16 14:40:07;;;;;;;0.30;0.30;;;;;;;;;;5018930;28;20129;-88
2022/02/16 14:42:34;;;;;;;0.30;0.30;;;;;;;;;;5023049;28;20026;-85
2022/02/16 14:45:01;;;;;;;0.20;0.20;;;;;;;;;;5021216;28;20035;-85
2022/02/16 14:47:29;;;;;;;0.20;0.20;;;;;;;;;;5023314;28;20084;-86
2022/02/16 14:49:55;;;;;;;0.20;0.20;;;;;;;;;;5022485;28;20560;-85